Latest Weather Observations for Bridgetown

IDW60801

Issued at 2:35 pm WST Tuesday 2 September 2014 (issued every 30 minutes, with the page automatically refreshed every 10 minutes)

About weather observations | Map of weather stations | Latest weather observations for WA | Other Formats
Station Details ID: 009617 Name: BRIDGETOWN Lat: -33.95 Lon: 116.13 Height: 178.66 m
Data from the previous 72 hours. | See also: Recent months at Bridgetown
Date/Time
WST
Temp
°C
App
Temp
°C
Dew
Point
Rel
Hum
%
Delta-T
°C
Wind Press
QNH
hPa
Press
MSL
hPa
Rain
since 9 am
mm
Dir
 
Spd
km/h
Gust
km/h
Spd
kts
Gust
kts
02/02:30pm 17.7 17.0 11.3 66 3.5 W 6 9 3 5 1015.6 1015.6 0.0
02/02:00pm 17.3 17.0 10.2 63 3.8 WNW 2 7 1 4 1015.4 1015.4 0.0
02/01:30pm 17.9 17.0 10.8 63 3.9 NW 6 9 3 5 1015.1 1015.1 0.0
02/01:00pm 18.1 17.1 11.0 63 3.9 NNW 7 11 4 6 1015.2 1015.2 0.0
02/12:30pm 16.4 17.2 12.6 78 2.1 CALM 0 0 0 0 1015.6 1015.6 0.0
02/12:00pm 15.3 15.6 10.9 75 2.4 CALM 0 0 0 0 1016.2 1016.2 0.0
02/11:30am 14.9 15.0 10.1 73 2.5 CALM 0 0 0 0 1016.6 1016.6 0.0
02/11:00am 14.8 15.0 10.6 76 2.2 CALM 0 0 0 0 1016.9 1016.9 0.0
02/10:30am 13.7 13.6 9.6 76 2.1 CALM 0 0 0 0 1017.1 1017.1 0.0
02/10:00am 13.2 13.0 9.1 76 2.1 CALM 0 2 0 1 1017.1 1017.1 0.0
02/09:30am 11.1 11.0 9.5 90 0.8 CALM 0 0 0 0 1017.1 1017.1 0.0
02/09:00am 10.2 10.2 9.9 98 0.2 CALM 0 6 0 3 1017.7 1017.8 0.0
02/08:30am 9.8 9.6 9.2 96 0.3 CALM 0 0 0 0 1017.8 1017.9 0.0
02/08:00am 9.1 8.9 9.0 99 0.0 CALM 0 0 0 0 1018.0 1018.1 0.0
02/07:30am 8.6 8.3 8.5 99 0.0 CALM 0 0 0 0 1017.9 1018.0 0.0
02/07:00am 8.2 7.8 8.2 100 0.0 CALM 0 0 0 0 1017.5 1017.6 0.0
02/06:30am 8.0 7.5 8.0 100 0.0 CALM 0 0 0 0 1016.9 1016.9 0.0
02/06:00am 7.8 7.3 7.7 99 0.0 CALM 0 0 0 0 1017.1 1017.1 0.0
02/05:30am 7.9 7.4 7.8 99 0.0 CALM 0 0 0 0 1017.2 1017.2 0.0
02/05:00am 7.8 7.3 7.7 99 0.0 CALM 0 0 0 0 1017.3 1017.3 0.0
02/04:30am 7.7 7.1 7.6 99 0.0 CALM 0 0 0 0 1017.6 1017.7 0.0
02/04:00am 7.6 7.0 7.5 99 0.0 CALM 0 0 0 0 1018.1 1018.2 0.0
02/03:30am 7.6 7.0 7.5 99 0.0 CALM 0 0 0 0 1018.3 1018.4 0.0
02/03:00am 7.6 7.0 7.6 100 0.0 CALM 0 0 0 0 1018.7 1018.8 0.0
02/02:30am 7.5 6.9 7.5 100 0.0 CALM 0 0 0 0 1019.2 1019.3 0.0
02/02:00am 7.4 6.8 7.4 100 0.0 CALM 0 0 0 0 1019.6 1019.7 0.0
02/01:30am 7.5 6.9 7.5 100 0.0 CALM 0 0 0 0 1019.7 1019.8 0.0
02/01:00am 7.3 6.7 7.3 100 0.0 CALM 0 0 0 0 1020.2 1020.3 0.0
02/12:30am 7.0 6.3 7.0 100 0.0 CALM 0 0 0 0 1020.1 1020.2 0.0
02/12:00am 7.1 6.4 7.1 100 0.0 SSW 0 0 0 0 1019.9 1020.0 0.0
 
Date/Time
WST
Temp
°C
App
Temp
°C
Dew
Point
Rel
Hum
%
Delta-T
°C
Wind Press
QNH
hPa
Press
MSL
hPa
Rain
since 9 am
mm
Dir
 
Spd
km/h
Gust
km/h
Spd
kts
Gust
kts
01/11:30pm 6.5 5.7 6.5 100 0.0 CALM 0 0 0 0 1020.9 1020.9 0.0
01/11:00pm 6.4 5.6 6.3 99 0.0 CALM 0 0 0 0 1021.0 1021.0 0.0
01/10:30pm 6.9 6.2 6.8 99 0.0 CALM 0 0 0 0 1021.3 1021.3 0.0
01/10:00pm 6.7 5.9 6.6 99 0.0 CALM 0 0 0 0 1021.8 1021.8 0.0
01/09:30pm 7.0 6.3 6.9 99 0.0 CALM 0 0 0 0 1022.0 1022.0 0.0
01/09:00pm 7.3 6.6 7.0 98 0.1 CALM 0 0 0 0 1021.9 1021.9 0.0
01/08:30pm 8.0 7.5 7.7 98 0.1 CALM 0 0 0 0 1022.1 1022.1 0.0
01/08:00pm 8.6 8.1 8.0 96 0.3 CALM 0 0 0 0 1021.7 1021.7 0.0
01/07:30pm 9.8 9.7 9.3 97 0.3 CALM 0 0 0 0 1021.9 1021.9 0.0
01/07:00pm 10.4 10.2 9.0 91 0.7 CALM 0 0 0 0 1021.9 1021.9 0.0
01/06:30pm 11.0 10.3 7.1 77 1.9 CALM 0 0 0 0 1021.9 1021.9 0.0
01/06:00pm 12.0 11.1 5.9 66 2.9 CALM 0 0 0 0 1021.7 1021.7 0.0
01/05:30pm 13.2 10.9 4.6 56 4.0 E 6 7 3 4 1021.6 1021.6 0.0
01/05:00pm 14.5 12.1 4.5 51 4.7 ENE 6 9 3 5 1021.4 1021.4 0.0
01/04:30pm 15.0 12.3 3.8 47 5.2 ENE 7 11 4 6 1021.2 1021.2 0.0
01/04:00pm 15.3 12.0 2.5 42 5.8 N 9 17 5 9 1021.4 1021.4 0.0
01/03:30pm 15.5 14.0 5.1 50 5.0 N 2 6 1 3 1021.3 1021.3 0.0
01/03:00pm 14.5 11.8 5.6 55 4.2 ENE 9 17 5 9 1021.3 1021.3 0.0
01/02:30pm 15.2 13.1 6.5 56 4.3 E 7 15 4 8 1021.2 1021.2 0.0
01/02:00pm 14.8 12.4 5.3 53 4.5 NE 7 17 4 9 1021.5 1021.5 0.0
01/01:30pm 15.2 12.6 4.0 47 5.2 N 7 15 4 8 1022.0 1022.0 0.0
01/01:00pm 14.7 12.3 4.4 50 4.8 N 6 13 3 7 1022.6 1022.7 0.0
01/12:30pm 13.9 10.8 3.4 49 4.8 NNE 9 15 5 8 1023.1 1023.2 0.0
01/12:00pm 14.0 10.8 5.1 55 4.2 NE 11 22 6 12 1023.6 1023.7 0.0
01/11:30am 13.1 10.7 5.3 59 3.7 ENE 7 13 4 7 1024.0 1024.1 0.0
01/11:00am 11.8 9.3 5.0 63 3.1 NE 7 13 4 7 1024.5 1024.6 0.0
01/10:30am 12.0 9.1 6.5 69 2.6 NNE 11 19 6 10 1024.7 1024.8 0.0
01/10:00am 10.4 8.8 10.1 98 0.2 ENE 9 17 5 9 1024.7 1024.8 0.0
01/09:30am 7.4 6.8 7.4 100 0.0 CALM 0 6 0 3 1024.8 1024.9 0.0
01/09:00am 4.8 3.6 4.8 100 0.0 CALM 0 0 0 0 1024.9 1025.0 0.4
01/08:30am 3.3 1.9 3.3 100 0.0 CALM 0 0 0 0 1024.7 1024.8 0.4
01/08:00am 2.8 1.3 2.8 100 0.0 CALM 0 0 0 0 1024.9 1025.0 0.4
01/07:30am 1.8 0.1 1.8 100 0.0 CALM 0 0 0 0 1024.6 1024.8 0.4
01/07:00am 1.8 0.1 1.8 100 0.0 CALM 0 0 0 0 1024.5 1024.7 0.4
01/06:30am 1.5 -0.3 1.5 100 0.0 CALM 0 2 0 1 1024.4 1024.6 0.2
01/06:00am 1.4 -1.1 1.4 100 0.0 NNW 4 6 2 3 1023.9 1024.1 0.2
01/05:30am 1.7 -0.4 1.7 100 0.0 NNW 2 4 1 2 1023.5 1023.7 0.2
01/05:00am 2.1 0.4 2.1 100 0.0 CALM 0 0 0 0 1023.3 1023.5 0.2
01/04:30am 2.2 0.2 2.2 100 0.0 N 2 4 1 2 1023.2 1023.4 0.2
01/04:00am 2.3 0.3 2.3 100 0.0 NNW 2 2 1 1 1023.2 1023.4 0.2
01/03:30am 2.7 1.1 2.7 100 0.0 CALM 0 0 0 0 1023.0 1023.2 0.2
01/03:00am 3.2 1.7 3.2 100 0.0 CALM 0 0 0 0 1023.2 1023.4 0.2
01/02:30am 3.3 1.5 3.3 100 0.0 NNW 2 4 1 2 1023.0 1023.2 0.2
01/02:00am 3.6 2.2 3.6 100 0.0 CALM 0 0 0 0 1023.3 1023.5 0.2
01/01:30am 3.6 2.2 3.6 100 0.0 CALM 0 0 0 0 1023.4 1023.6 0.2
01/01:00am 3.8 2.4 3.8 100 0.0 CALM 0 0 0 0 1023.2 1023.4 0.2
01/12:30am 3.3 1.9 3.3 100 0.0 CALM 0 0 0 0 1023.0 1023.2 0.2
01/12:00am 3.1 1.6 3.1 100 0.0 CALM 0 0 0 0 1023.0 1023.2 0.2
 
Date/Time
WST
Temp
°C
App
Temp
°C
Dew
Point
Rel
Hum
%
Delta-T
°C
Wind Press
QNH
hPa
Press
MSL
hPa
Rain
since 9 am
mm
Dir
 
Spd
km/h
Gust
km/h
Spd
kts
Gust
kts
31/11:30pm 3.4 2.0 3.4 100 0.0 CALM 0 0 0 0 1023.2 1023.4 0.2
31/11:00pm 3.8 2.4 3.8 100 0.0 CALM 0 0 0 0 1023.2 1023.4 0.2
31/10:30pm 4.2 2.9 4.2 100 0.0 CALM 0 0 0 0 1023.5 1023.7 0.2
31/10:00pm 4.6 3.4 4.5 99 0.0 CALM 0 0 0 0 1023.6 1023.8 0.2
31/09:30pm 5.2 4.1 5.1 99 0.0 CALM 0 4 0 2 1023.3 1023.5 0.2
31/09:00pm 5.9 4.9 5.8 99 0.0 CALM 0 0 0 0 1022.9 1023.1 0.2
31/08:30pm 6.3 5.0 6.0 98 0.1 NNW 2 4 1 2 1022.6 1022.7 0.2
31/08:00pm 7.9 7.3 7.6 98 0.1 CALM 0 0 0 0 1022.2 1022.3 0.2
31/07:30pm 8.9 7.6 7.5 91 0.7 SSE 4 7 2 4 1022.0 1022.1 0.2
31/07:00pm 10.0 8.2 7.1 82 1.4 S 6 9 3 5 1021.9 1022.0 0.2
31/06:30pm 10.6 8.7 6.7 77 1.9 S 6 11 3 6 1021.2 1021.3 0.2
31/06:00pm 11.2 9.7 6.9 75 2.1 S 4 7 2 4 1021.0 1021.1 0.2
31/05:30pm 11.9 9.5 6.8 71 2.5 S 9 15 5 8 1021.0 1021.1 0.2
31/05:00pm 12.9 11.0 7.4 69 2.7 S 7 13 4 7 1020.3 1020.5 0.2
31/04:30pm 14.3 12.1 7.8 65 3.3 S 9 17 5 9 1019.7 1019.9 0.2
31/04:00pm 14.7 12.7 7.0 60 3.8 S 7 17 4 9 1019.4 1019.6 0.2
31/03:30pm 13.7 10.6 7.2 65 3.2 S 13 20 7 11 1019.3 1019.5 0.2
31/03:00pm 14.7 11.7 6.0 56 4.2 SSW 11 20 6 11 1019.0 1019.2 0.2
31/02:30pm 13.8 10.7 5.7 58 3.9 SW 11 19 6 10 1019.1 1019.3 0.2
31/02:00pm 13.5 11.7 7.3 66 3.0 WSW 6 13 3 7 1018.9 1019.1 0.2
31/01:30pm 15.0 13.2 7.3 60 3.8 WSW 6 17 3 9 1018.7 1018.9 0.0
31/01:00pm 13.9 12.3 7.9 67 3.0 SSW 6 15 3 8 1018.9 1019.1 0.0
31/12:30pm 11.9 10.8 9.8 87 1.1 SE 6 9 3 5 1019.2 1019.4 0.0
31/12:00pm 11.9 7.5 7.4 74 2.2 SSW 20 30 11 16 1019.5 1019.7 0.0
31/11:30am 13.8 11.6 6.2 60 3.7 WSW 7 17 4 9 1019.4 1019.6 0.0
31/11:00am 13.7 11.9 7.0 64 3.3 W 6 9 3 5 1019.5 1019.7 0.0
31/10:30am 13.8 12.5 9.8 77 2.1 WNW 7 11 4 6 1019.7 1019.9 0.0
31/10:00am 12.5 11.2 9.3 81 1.6 WSW 6 9 3 5 1019.9 1020.1 0.0
31/09:30am 11.6 11.4 10.5 93 0.6 S 2 9 1 5 1019.9 1020.1 0.0
31/09:00am 10.7 10.9 10.7 100 0.0 CALM 0 4 0 2 1019.8 1020.0 4.0
31/08:30am 9.1 8.2 9.1 100 0.0 NNE 4 6 2 3 1019.8 1020.0 4.0
31/08:00am 7.6 6.7 7.6 100 0.0 NW 2 4 1 2 1019.5 1019.7 4.0
31/07:30am 6.9 6.2 6.9 100 0.0 CALM 0 0 0 0 1019.3 1019.5 4.0
31/07:00am 6.3 5.1 6.3 100 0.0 NNW 2 4 1 2 1019.0 1019.2 4.0
31/06:30am 6.7 5.9 6.7 100 0.0 CALM 0 0 0 0 1018.7 1018.9 4.0
31/06:00am 6.7 5.9 6.7 100 0.0 CALM 0 0 0 0 1018.3 1018.5 4.0
31/05:30am 7.4 6.0 7.4 100 0.0 W 4 6 2 3 1018.1 1018.3 4.0
31/05:00am 7.5 6.9 7.5 100 0.0 CALM 0 0 0 0 1018.0 1018.1 4.0
31/04:30am 8.6 8.3 8.6 100 0.0 CALM 0 0 0 0 1017.9 1018.0 4.0
31/04:00am 8.8 8.5 8.8 100 0.0 CALM 0 0 0 0 1018.3 1018.5 3.8
31/03:30am 8.9 8.7 8.9 100 0.0 CALM 0 4 0 2 1018.2 1018.4 3.8
31/03:00am 9.0 8.0 9.0 100 0.0 SW 4 6 2 3 1018.3 1018.5 1.6
31/02:30am 9.1 8.9 9.1 100 0.0 CALM 0 0 0 0 1018.0 1018.1 0.4
31/02:00am 8.8 8.5 8.8 100 0.0 CALM 0 0 0 0 1017.8 1017.9 0.2
31/01:30am 8.7 8.4 8.7 100 0.0 CALM 0 0 0 0 1017.7 1017.8 0.0
31/01:00am 8.5 8.2 8.5 100 0.0 CALM 0 0 0 0 1017.6 1017.7 0.0
31/12:30am 8.5 8.2 8.5 100 0.0 CALM 0 0 0 0 1017.5 1017.6 0.0
31/12:00am 8.4 8.0 8.4 100 0.0 CALM 0 0 0 0 1017.8 1017.9 0.0
 
Date/Time
WST
Temp
°C
App
Temp
°C
Dew
Point
Rel
Hum
%
Delta-T
°C
Wind Press
QNH
hPa
Press
MSL
hPa
Rain
since 9 am
mm
Dir
 
Spd
km/h
Gust
km/h
Spd
kts
Gust
kts
30/11:30pm 8.1 7.7 8.1 100 0.0 CALM 0 0 0 0 1017.9 1018.0 0.0
30/11:00pm 8.6 8.3 8.6 100 0.0 CALM 0 0 0 0 1017.6 1017.7 0.0
30/10:30pm 9.0 8.8 9.0 100 0.0 CALM 0 0 0 0 1017.8 1017.9 0.0
30/10:00pm 9.2 9.0 9.2 100 0.0 CALM 0 2 0 1 1018.4 1018.6 0.0
30/09:30pm 8.8 8.5 8.8 100 0.0 CALM 0 4 0 2 1018.0 1018.1 0.0
30/09:00pm 8.4 8.0 8.3 99 0.0 CALM 0 0 0 0 1017.9 1018.0 0.0
30/08:30pm 8.9 8.6 8.8 99 0.0 CALM 0 0 0 0 1017.8 1017.9 0.0
30/08:00pm 10.1 10.1 9.8 98 0.2 CALM 0 0 0 0 1017.8 1017.9 0.0
30/07:30pm 10.6 10.0 10.3 98 0.2 S 4 6 2 3 1017.7 1017.8 0.0
30/07:00pm 11.3 9.7 10.2 93 0.6 S 9 20 5 11 1017.8 1017.9 0.0
30/06:30pm 10.9 11.1 10.4 97 0.3 CALM 0 0 0 0 1017.2 1017.3 0.0
30/06:00pm 11.3 11.3 9.7 90 0.8 CALM 0 0 0 0 1016.9 1017.0 0.0
30/05:30pm 12.1 10.7 8.9 81 1.6 S 6 9 3 5 1016.6 1016.7 0.0
30/05:00pm 12.5 12.0 9.5 82 1.5 SW 2 6 1 3 1016.8 1016.9 0.0
30/04:30pm 12.3 10.8 9.0 80 1.7 SSW 7 15 4 8 1016.5 1016.6 0.0
30/04:00pm 13.1 10.6 8.2 72 2.4 SW 11 20 6 11 1016.2 1016.3 0.0
30/03:30pm 13.8 12.4 8.8 72 2.5 W 6 15 3 8 1015.8 1015.9 0.0
30/03:00pm 13.4 11.0 7.2 66 3.0 WSW 9 19 5 10 1015.7 1015.8 0.0

Other Formats:

Comma delimited format used in spreadsheet applications
http://www.bom.gov.au/fwo/IDW60801/IDW60801.95632.axf

JavaScript Object Notation format (JSON) in row-major order
http://www.bom.gov.au/fwo/IDW60801/IDW60801.95632.json